Terminal Aerodrome Forecast
Issued by NWS Melbourne, FL

Current Version | Previous Version | Text Only | Print | Product List | Glossary On
Versions: 1 2 3 4 5 6 7 8 9 10 11 12 13 14 15 16 17
000
FTUS42 KMLB 231100
TAFVRB
TAF
KVRB 231132Z 2312/2412 04010KT P6SM FEW030
     FM231500 04012KT P6SM SCT030 BKN250
     FM240000 05008KT P6SM SCT030 BKN200
     FM240600 04010KT P6SM FEW025 BKN250=

USA.gov is the U.S. government's official web portal to all federal, state and local government web resources and services.